Terminal Aerodrome Forecast
Issued by NWS

Home | Current Version | Previous Version | Text Only | Print | Product List | Glossary On
Versions: 1 2 3 4 5 6 7 8 9 10 11 12 13 14 15 16
000
FTUS46 KSGX 292330
TAFCRQ
TAF
KCRQ 292330Z 3000/3024 VRB04KT P6SM FEW250
     FM301200 VRB04KT P6SM VCFG SCT003
     FM301600 17007KT P6SM SCT008
     FM301900 21008KT P6SM SCT013=

USA.gov is the U.S. government's official web portal to all federal, state and local government web resources and services.